Time;durP1;ratioP1;P1;durP2;ratioP2;P2;SDS_P1;SDS_P2;PMS_P1;PMS_P2;Temp;Humidity;BMP_temperature;BMP_pressure;BME280_temperature;BME280_humidity;BME280_pressure;Samples;Min_cycle;Max_cycle;Signal;HPM_P1;HPM_P2
2023/07/11 00:00:03;;;;;;;3.25;2.05;;;;;;;21.74;100.00;100567.00;5004708;28;20141;-76
2023/07/11 00:02:29;;;;;;;4.32;2.17;;;;;;;21.38;100.00;100516.06;4986382;28;20081;-76
2023/07/11 00:04:54;;;;;;;3.30;2.28;;;;;;;21.46;100.00;100540.63;5000118;28;20505;-76
2023/07/11 00:07:20;;;;;;;5.28;2.92;;;;;;;21.67;100.00;100576.22;4998971;28;20036;-76
2023/07/11 00:09:47;;;;;;;5.10;2.15;;;;;;;21.27;100.00;100512.03;5001410;28;20591;-76
2023/07/11 00:12:13;;;;;;;4.72;2.00;;;;;;;21.39;100.00;100534.66;5003297;28;20700;-75
2023/07/11 00:14:38;;;;;;;2.95;1.67;;;;;;;21.69;100.00;100583.22;5001697;28;20092;-76
2023/07/11 00:17:05;;;;;;;4.30;1.83;;;;;;;21.34;100.00;100528.66;5007787;28;20395;-76
2023/07/11 00:19:45;;;;;;;3.50;1.92;;;;;;;21.62;100.00;100583.56;5003895;28;20490;-77
2023/07/11 00:22:11;;;;;;;4.65;2.42;;;;;;;21.28;100.00;100523.56;5002024;28;20449;-76
2023/07/11 00:24:36;;;;;;;5.50;2.55;;;;;;;21.48;100.00;100569.00;5005067;28;20041;-76
2023/07/11 00:27:02;;;;;;;2.47;1.73;;;;;;;21.00;100.00;100508.72;5004108;28;20496;-76
2023/07/11 00:29:27;;;;;;;3.20;2.13;;;;;;;21.58;100.00;100614.00;5004196;28;20097;-76
2023/07/11 00:31:53;;;;;;;6.45;1.80;;;;;;;20.85;100.00;100483.53;5002552;28;20065;-77
2023/07/11 00:34:18;;;;;;;5.85;2.53;;;;;;;21.05;100.00;100524.56;5003545;28;20042;-77
2023/07/11 00:36:44;;;;;;;2.58;1.77;;;;;;;21.40;100.00;100576.47;5003759;28;20029;-76
2023/07/11 00:39:12;;;;;;;8.73;3.00;;;;;;;21.47;100.00;100595.78;5004528;28;20771;-76
2023/07/11 00:41:38;;;;;;;5.05;3.08;;;;;;;21.36;100.00;100576.66;5002181;28;20477;-76
2023/07/11 00:44:11;;;;;;;3.60;2.60;;;;;;;20.99;100.00;100586.16;5002913;28;20053;-74
2023/07/11 00:46:37;;;;;;;4.43;2.95;;;;;;;21.35;100.00;100586.44;5001415;28;20156;-75
2023/07/11 00:49:03;;;;;;;11.48;2.78;;;;;;;21.07;100.00;100520.88;5001225;28;20457;-77
2023/07/11 00:51:33;;;;;;;3.63;2.47;;;;;;;20.97;100.00;100518.66;5004586;28;20133;-75
2023/07/11 00:54:02;;;;;;;5.35;4.82;;;;;;;21.46;100.00;100589.56;4987976;28;20054;-78
2023/07/11 00:56:36;;;;;;;5.35;3.15;;;;;;;20.69;100.00;100506.44;4999564;28;20050;-74
2023/07/11 00:59:02;;;;;;;8.68;3.95;;;;;;;21.19;100.00;100556.88;4998429;28;20050;-75
2023/07/11 01:01:27;;;;;;;4.75;3.22;;;;;;;21.25;100.00;100558.41;4999541;28;20402;-75
2023/07/11 01:03:54;;;;;;;4.60;1.95;;;;;;;20.98;100.00;100488.38;5006352;28;20076;-75
2023/07/11 01:06:25;;;;;;;4.22;2.25;;;;;;;20.89;100.00;100488.78;5001799;28;20080;-74
2023/07/11 01:08:52;;;;;;;4.22;2.40;;;;;;;21.07;100.00;100525.31;5001297;28;20105;-75
2023/07/11 01:11:20;;;;;;;8.38;2.90;;;;;;;20.71;100.00;100467.25;5002960;28;20065;-77
2023/07/11 01:13:46;;;;;;;7.78;3.42;;;;;;;20.74;100.00;100488.44;5001434;28;20052;-79
2023/07/11 01:16:11;;;;;;;6.78;3.10;;;;;;;21.06;100.00;100540.47;4999181;28;20037;-78
2023/07/11 01:18:37;;;;;;;5.25;2.60;;;;;;;21.01;100.00;100546.94;5006810;28;20038;-75
2023/07/11 01:21:04;;;;;;;4.95;2.60;;;;;;;20.57;100.00;100465.13;5001748;28;20491;-77
2023/07/11 01:23:30;;;;;;;3.28;2.22;;;;;;;20.58;100.00;100463.34;4986962;28;20061;-77
2023/07/11 01:26:03;;;;;;;3.35;2.25;;;;;;;20.49;100.00;100475.22;5000424;28;20405;-75
2023/07/11 01:28:29;;;;;;;5.25;3.15;;;;;;;20.68;100.00;100558.03;5002736;28;20045;-79
2023/07/11 01:30:54;;;;;;;4.15;2.97;;;;;;;20.26;100.00;100499.25;5001466;28;20104;-76
2023/07/11 01:33:24;;;;;;;5.22;3.45;;;;;;;19.97;100.00;100478.13;5000863;28;20064;-75
2023/07/11 01:35:54;;;;;;;5.32;3.67;;;;;;;20.60;100.00;100578.78;4998216;28;20057;-75
2023/07/11 01:38:21;;;;;;;3.60;2.50;;;;;;;20.28;100.00;100524.06;4983433;28;20046;-75
2023/07/11 01:40:47;;;;;;;6.93;3.45;;;;;;;20.21;100.00;100550.91;4997112;28;20156;-75
2023/07/11 01:43:15;;;;;;;3.75;2.20;;;;;;;20.11;100.00;100551.31;5002636;28;21055;-76
2023/07/11 01:45:40;;;;;;;4.95;3.03;;;;;;;20.18;100.00;100499.53;5000195;28;20038;-77
2023/07/11 01:48:06;;;;;;;3.35;2.47;;;;;;;19.82;100.00;100482.22;4999536;28;20107;-75
2023/07/11 01:50:32;;;;;;;3.72;2.25;;;;;;;20.05;100.00;100581.72;5002339;28;20049;-75
2023/07/11 01:52:57;;;;;;;4.93;2.45;;;;;;;20.09;100.00;100575.38;5004468;28;20053;-75
2023/07/11 01:55:23;;;;;;;4.50;2.92;;;;;;;20.30;100.00;100572.81;4998662;28;20127;-74
2023/07/11 01:57:48;;;;;;;6.47;2.80;;;;;;;20.24;100.00;100588.09;5000562;28;20824;-76
2023/07/11 02:00:14;;;;;;;5.07;3.67;;;;;;;20.14;100.00;100585.84;4998692;28;20045;-76
2023/07/11 02:02:40;;;;;;;5.45;3.50;;;;;;;19.87;100.00;100553.94;4992313;28;20046;-75
2023/07/11 02:05:06;;;;;;;8.32;3.20;;;;;;;19.82;100.00;100553.25;4999998;28;20402;-75
2023/07/11 02:07:31;;;;;;;5.13;3.22;;;;;;;20.17;100.00;100573.28;5000652;28;20054;-75
2023/07/11 02:09:56;;;;;;;6.22;3.25;;;;;;;20.54;100.00;100589.69;4998066;28;20061;-75
2023/07/11 02:12:22;;;;;;;9.23;4.30;;;;;;;19.99;100.00;100494.03;4998988;28;20049;-76
2023/07/11 02:14:47;;;;;;;4.68;2.78;;;;;;;20.53;100.00;100590.59;4998353;28;20049;-76
2023/07/11 02:17:14;;;;;;;8.63;3.45;;;;;;;20.42;100.00;100599.88;4997112;28;20570;-75
2023/07/11 02:19:40;;;;;;;2.85;1.83;;;;;;;20.27;100.00;100592.44;5001518;28;20505;-75
2023/07/11 02:22:08;;;;;;;4.38;2.72;;;;;;;19.90;100.00;100513.91;4995223;28;20057;-75
2023/07/11 02:24:33;;;;;;;7.55;4.25;;;;;;;19.93;100.00;100545.75;4999284;28;20041;-75
2023/07/11 02:26:59;;;;;;;4.75;2.65;;;;;;;19.48;100.00;100506.53;4994682;28;20129;-75
2023/07/11 02:29:24;;;;;;;3.97;2.83;;;;;;;20.08;100.00;100591.41;4997279;28;20496;-76
2023/07/11 02:31:50;;;;;;;4.85;3.05;;;;;;;19.48;100.00;100518.94;4997733;28;20043;-78
2023/07/11 02:34:15;;;;;;;7.90;4.03;;;;;;;20.07;100.00;100589.66;4998618;28;20593;-76
2023/07/11 02:36:41;;;;;;;3.40;2.45;;;;;;;19.63;100.00;100509.56;4998206;28;20038;-78
2023/07/11 02:39:06;;;;;;;4.90;3.20;;;;;;;19.93;100.00;100512.94;4997699;28;20042;-76
2023/07/11 02:41:32;;;;;;;6.70;4.38;;;;;;;19.89;100.00;100506.84;4997199;28;20064;-77
2023/07/11 02:43:58;;;;;;;3.30;2.45;;;;;;;19.73;100.00;100479.88;5000105;28;20045;-76
2023/07/11 02:46:24;;;;;;;5.93;3.78;;;;;;;19.64;100.00;100495.31;5000966;28;20105;-76
2023/07/11 02:48:50;;;;;;;6.22;3.40;;;;;;;20.21;100.00;100569.56;4996924;28;20485;-77
2023/07/11 02:51:15;;;;;;;7.85;3.15;;;;;;;20.44;100.00;100590.03;4996552;28;20057;-77
2023/07/11 02:53:41;;;;;;;4.47;3.20;;;;;;;19.92;100.00;100485.41;4985665;28;20053;-76
2023/07/11 02:56:06;;;;;;;4.63;2.83;;;;;;;20.37;100.00;100567.22;4996705;28;20119;-76
2023/07/11 02:58:32;;;;;;;10.18;4.07;;;;;;;19.79;100.00;100473.50;4998024;28;20400;-76
2023/07/11 03:00:59;;;;;;;4.38;2.60;;;;;;;20.12;100.00;100587.69;4996568;28;20038;-77
2023/07/11 03:03:24;;;;;;;4.82;3.72;;;;;;;19.94;100.00;100566.13;5002731;28;20082;-76
2023/07/11 03:05:52;;;;;;;6.15;3.20;;;;;;;20.24;100.00;100590.78;5000567;28;20101;-77
2023/07/11 03:08:18;;;;;;;5.60;3.55;;;;;;;20.40;100.00;100588.41;5000991;28;20111;-78
2023/07/11 03:10:44;;;;;;;6.85;3.83;;;;;;;19.43;100.00;100471.19;4998402;28;20054;-77
2023/07/11 03:13:10;;;;;;;5.35;3.17;;;;;;;19.71;100.00;100555.44;4997767;28;20120;-76
2023/07/11 03:15:37;;;;;;;7.20;2.70;;;;;;;19.96;100.00;100558.09;5001743;28;20076;-77
2023/07/11 03:18:03;;;;;;;6.32;3.17;;;;;;;19.81;100.00;100511.59;4997692;28;20052;-79
2023/07/11 03:20:28;;;;;;;6.90;3.42;;;;;;;19.37;100.00;100466.09;5001867;28;20050;-78
2023/07/11 03:22:54;;;;;;;5.32;3.00;;;;;;;19.66;100.00;100470.34;5001918;28;20137;-76
2023/07/11 03:25:20;;;;;;;11.20;3.38;;;;;;;20.09;100.00;100583.34;4996228;28;20033;-77
2023/07/11 03:27:45;;;;;;;6.57;3.75;;;;;;;20.31;100.00;100558.56;5000693;28;20112;-77
2023/07/11 03:30:11;;;;;;;5.95;3.28;;;;;;;19.90;100.00;100505.03;5002932;28;20104;-78
2023/07/11 03:32:37;;;;;;;5.95;3.92;;;;;;;19.76;100.00;100479.81;5006297;28;20057;-77
2023/07/11 03:35:03;;;;;;;5.53;2.95;;;;;;;19.86;100.00;100477.66;5002342;28;20401;-80
2023/07/11 03:37:28;;;;;;;11.27;2.75;;;;;;;19.66;100.00;100473.03;5001107;28;20058;-77
2023/07/11 03:39:53;;;;;;;4.38;2.75;;;;;;;19.56;100.00;100475.16;5004796;28;20034;-76
2023/07/11 03:42:19;;;;;;;6.55;2.95;;;;;;;20.29;100.00;100577.28;5004569;28;20108;-76
2023/07/11 03:44:45;;;;;;;7.05;3.28;;;;;;;20.08;100.00;100554.97;5005339;28;20416;-76
2023/07/11 03:47:10;;;;;;;9.38;2.47;;;;;;;20.33;100.00;100576.25;5002688;28;20544;-78
2023/07/11 03:49:36;;;;;;;4.63;2.72;;;;;;;20.41;100.00;100552.81;5001030;28;20548;-78
2023/07/11 03:52:02;;;;;;;5.45;3.00;;;;;;;19.82;100.00;100465.38;4983727;28;20050;-77
2023/07/11 03:54:28;;;;;;;7.32;2.78;;;;;;;19.99;100.00;100462.06;5002893;28;20049;-77
2023/07/11 03:56:53;;;;;;;4.80;2.25;;;;;;;19.90;100.00;100471.31;5000264;28;20418;-76
2023/07/11 03:59:19;;;;;;;6.65;3.83;;;;;;;20.52;100.00;100535.56;5000237;28;20141;-77
2023/07/11 04:01:46;;;;;;;4.50;3.15;;;;;;;20.71;100.00;100547.25;5002953;28;20058;-77
2023/07/11 04:04:12;;;;;;;9.05;8.35;;;;;;;20.72;100.00;100569.44;4999465;28;20178;-76
2023/07/11 04:06:37;;;;;;;6.45;3.55;;;;;;;20.25;100.00;100485.03;4997295;28;20042;-76
2023/07/11 04:09:02;;;;;;;5.28;3.33;;;;;;;20.29;100.00;100473.34;5001317;28;20081;-76
2023/07/11 04:11:28;;;;;;;5.47;3.97;;;;;;;20.28;100.00;100482.28;5005111;28;20100;-76
2023/07/11 04:13:53;;;;;;;6.55;3.20;;;;;;;20.33;100.00;100490.09;5000564;28;20039;-77
2023/07/11 04:16:19;;;;;;;3.92;2.80;;;;;;;20.38;100.00;100507.63;4998284;28;20396;-78
2023/07/11 04:18:44;;;;;;;6.03;3.35;;;;;;;20.98;100.00;100571.09;4998615;28;20042;-77
2023/07/11 04:21:10;;;;;;;8.25;4.70;;;;;;;20.69;100.00;100506.44;5001211;28;20573;-76
2023/07/11 04:23:35;;;;;;;6.13;3.97;;;;;;;20.52;100.00;100453.75;4998556;28;20375;-77
2023/07/11 04:26:01;;;;;;;7.63;4.65;;;;;;;20.75;100.00;100495.53;5001294;28;20144;-76
2023/07/11 04:28:26;;;;;;;5.82;2.88;;;;;;;20.67;100.00;100468.28;5000297;28;20153;-76
2023/07/11 04:30:52;;;;;;;5.93;3.60;;;;;;;20.95;100.00;100492.03;5009293;28;20542;-75
2023/07/11 04:33:17;;;;;;;4.70;3.17;;;;;;;21.23;100.00;100566.47;5004710;28;20038;-77
2023/07/11 04:35:43;;;;;;;5.82;3.20;;;;;;;20.79;100.00;100494.47;5005114;28;20104;-76
2023/07/11 04:38:09;;;;;;;7.03;5.20;;;;;;;21.04;100.00;100528.13;5004537;28;20049;-75
2023/07/11 04:40:34;;;;;;;7.20;4.55;;;;;;;20.50;100.00;100418.31;4999704;28;20062;-77
2023/07/11 04:43:00;;;;;;;6.97;3.95;;;;;;;21.39;100.00;100576.50;5000661;28;20034;-79
2023/07/11 04:45:26;;;;;;;5.53;4.57;;;;;;;21.58;100.00;100584.63;4999361;28;20053;-78
2023/07/11 04:47:51;;;;;;;5.28;3.75;;;;;;;21.39;100.00;100515.09;4992754;28;20478;-79
2023/07/11 04:50:17;;;;;;;6.28;3.65;;;;;;;20.85;100.00;100464.00;5002066;28;20775;-76
2023/07/11 04:52:43;;;;;;;6.43;3.80;;;;;;;20.99;100.00;100482.97;5005424;28;20046;-76
2023/07/11 04:55:09;;;;;;;6.55;3.70;;;;;;;21.57;100.00;100578.44;4998377;28;20042;-78
2023/07/11 04:57:35;;;;;;;5.72;3.70;;;;;;;21.74;100.00;100547.44;4999155;28;20046;-75
2023/07/11 05:00:00;;;;;;;4.43;3.30;;;;;;;21.81;100.00;100538.22;5002249;28;20046;-77
2023/07/11 05:02:26;;;;;;;7.30;4.18;;;;;;;22.10;100.00;100559.16;4979804;28;20050;-77
2023/07/11 05:04:52;;;;;;;7.85;2.70;;;;;;;22.12;100.00;100557.28;4980307;28;20085;-79
2023/07/11 05:07:17;;;;;;;7.68;6.28;;;;;;;22.39;100.00;100559.66;4982248;28;20133;-78
2023/07/11 05:09:43;;;;;;;7.13;3.53;;;;;;;22.04;100.00;100486.41;4984492;28;20038;-78
2023/07/11 05:12:10;;;;;;;4.45;2.75;;;;;;;22.48;100.00;100553.88;4982227;28;20082;-82
2023/07/11 05:14:36;;;;;;;5.80;2.85;;;;;;;23.05;100.00;100579.72;4976376;28;20049;-83
2023/07/11 05:17:02;;;;;;;9.63;3.28;;;;;;;23.23;100.00;100580.63;4984160;28;20058;-83
2023/07/11 05:19:27;;;;;;;5.47;3.30;;;;;;;23.46;100.00;100540.16;4986278;28;20046;-83
2023/07/11 05:21:53;;;;;;;4.05;2.75;;;;;;;23.78;100.00;100567.97;4982571;28;20424;-84
2023/07/11 05:24:18;;;;;;;7.22;3.65;;;;;;;23.63;100.00;100560.72;4985647;28;20413;-84
2023/07/11 05:26:43;;;;;;;4.40;3.45;;;;;;;23.51;100.00;100522.03;4980165;28;20485;-84
2023/07/11 05:29:09;;;;;;;3.67;2.38;;;;;;;23.14;100.00;100523.91;4983052;28;20050;-84
2023/07/11 05:31:34;;;;;;;5.03;3.17;;;;;;;23.01;100.00;100485.31;4984265;28;20502;-83
2023/07/11 05:34:00;;;;;;;5.22;3.75;;;;;;;23.92;100.00;100508.28;4978616;28;20022;-83
2023/07/11 05:36:31;;;;;;;12.95;4.97;;;;;;;24.32;100.00;100593.72;4976730;28;20047;-82
2023/07/11 05:39:02;;;;;;;6.75;2.97;;;;;;;24.53;100.00;100576.47;4983346;28;20120;-83
2023/07/11 05:41:27;;;;;;;6.30;3.30;;;;;;;25.26;100.00;100594.75;4977902;28;20070;-83
2023/07/11 05:43:54;;;;;;;6.00;3.00;;;;;;;24.92;100.00;100561.78;4981106;28;20051;-83
2023/07/11 05:46:19;;;;;;;4.93;2.53;;;;;;;25.66;100.00;100584.31;4981775;28;20038;-83
2023/07/11 05:48:45;;;;;;;19.17;3.28;;;;;;;25.36;100.00;100582.53;4981918;28;20043;-83
2023/07/11 05:51:12;;;;;;;5.10;3.00;;;;;;;25.30;100.00;100541.72;4983336;28;20866;-82
2023/07/11 05:53:38;;;;;;;5.45;3.97;;;;;;;26.07;100.00;100594.41;4985536;28;20061;-85
2023/07/11 05:56:04;;;;;;;5.35;2.50;;;;;;;25.69;100.00;100593.06;4974536;28;20055;-84
2023/07/11 05:58:31;;;;;;;6.00;3.33;;;;;;;26.10;100.00;100518.91;4977693;28;20054;-85
2023/07/11 06:00:58;;;;;;;6.43;3.60;;;;;;;26.67;100.00;100526.06;4980009;28;20026;-85
2023/07/11 06:03:26;;;;;;;6.63;4.85;;;;;;;26.78;100.00;100536.13;5000130;28;20049;-85
2023/07/11 06:05:53;;;;;;;5.25;3.50;;;;;;;26.72;100.00;100583.19;4983522;28;20042;-85
2023/07/11 06:08:19;;;;;;;7.13;4.50;;;;;;;25.72;100.00;100538.25;5001684;28;20065;-86
2023/07/11 06:10:45;;;;;;;5.65;2.22;;;;;;;26.18;100.00;100526.53;4999642;28;20506;-86
2023/07/11 06:13:12;;;;;;;5.30;2.95;;;;;;;26.73;100.00;100599.22;5001838;28;20041;-85
2023/07/11 06:15:38;;;;;;;5.22;2.92;;;;;;;26.40;100.00;100599.50;4996696;28;20081;-85
2023/07/11 06:18:03;;;;;;;8.73;3.33;;;;;;;26.66;100.00;100586.25;4998353;28;20505;-86
2023/07/11 06:20:30;;;;;;;4.82;2.97;;;;;;;27.26;100.00;100588.59;4999548;28;20042;-85
2023/07/11 06:22:56;;;;;;;12.85;2.88;;;;;;;26.94;100.00;100596.94;4997543;28;20046;-85
2023/07/11 06:25:22;;;;;;;6.22;3.67;;;;;;;26.32;100.00;100459.22;5002147;28;20037;-85
2023/07/11 06:27:47;;;;;;;4.82;3.00;;;;;;;27.62;100.00;100565.50;4999703;28;20133;-85
2023/07/11 06:30:13;;;;;;;4.03;2.75;;;;;;;27.94;99.39;100594.81;4984236;28;20042;-85
2023/07/11 06:32:38;;;;;;;9.40;3.30;;;;;;;27.91;100.00;100598.59;5003111;28;20056;-85
2023/07/11 06:35:05;;;;;;;3.25;2.22;;;;;;;27.77;97.28;100572.53;4998920;28;20058;-85
2023/07/11 06:37:30;;;;;;;14.25;3.88;;;;;;;26.74;100.00;100565.94;4998670;28;20078;-84
2023/07/11 06:39:56;;;;;;;3.95;2.72;;;;;;;26.62;100.00;100494.06;5000742;28;20476;-84
2023/07/11 06:42:21;;;;;;;6.15;3.35;;;;;;;26.73;100.00;100574.13;4993718;28;20104;-85
2023/07/11 06:44:47;;;;;;;8.55;3.50;;;;;;;27.03;100.00;100576.63;5001365;28;20434;-85
2023/07/11 06:47:12;;;;;;;7.43;2.97;;;;;;;27.45;100.00;100530.75;4983965;28;20046;-85
2023/07/11 06:49:37;;;;;;;5.00;3.65;;;;;;;28.08;98.80;100573.13;4999187;28;20497;-86
2023/07/11 06:52:03;;;;;;;3.60;2.53;;;;;;;27.82;99.10;100571.38;5000237;28;20763;-86
2023/07/11 06:54:29;;;;;;;4.45;2.80;;;;;;;28.13;96.72;100573.66;5004415;28;20413;-85
2023/07/11 06:56:57;;;;;;;3.33;1.85;;;;;;;28.34;96.71;100565.84;5001920;28;20054;-84
2023/07/11 06:59:23;;;;;;;3.90;2.60;;;;;;;27.86;94.57;100551.31;5002431;28;20172;-84
2023/07/11 07:01:49;;;;;;;3.72;2.55;;;;;;;27.49;91.95;100497.25;5001818;28;20502;-86
2023/07/11 07:04:14;;;;;;;6.07;3.00;;;;;;;27.65;92.27;100559.03;5000137;28;20042;-82
2023/07/11 07:06:41;;;;;;;7.00;3.45;;;;;;;28.02;97.03;100572.69;4998741;28;20037;-77
2023/07/11 07:09:07;;;;;;;3.88;2.40;;;;;;;26.92;95.48;100545.00;4990457;28;20428;-81
2023/07/11 07:11:35;;;;;;;4.78;2.63;;;;;;;27.50;91.23;100490.88;5008629;28;20045;-75
2023/07/11 07:14:01;;;;;;;20.17;4.03;;;;;;;26.64;94.14;100502.88;5003752;28;20062;-78
2023/07/11 07:16:28;;;;;;;5.22;2.85;;;;;;;27.84;99.36;100559.53;5010584;28;20060;-82
2023/07/11 07:18:54;;;;;;;3.65;2.38;;;;;;;27.08;91.80;100417.41;5002521;28;20072;-78
2023/07/11 07:21:20;;;;;;;3.05;2.45;;;;;;;28.40;97.92;100549.22;5006412;28;20605;-78
2023/07/11 07:23:45;;;;;;;3.25;2.28;;;;;;;28.15;92.52;100533.06;5000948;28;20051;-79
2023/07/11 07:26:11;;;;;;;4.72;3.08;;;;;;;28.42;85.56;100546.38;5006361;28;20556;-81
2023/07/11 07:28:36;;;;;;;8.85;2.45;;;;;;;27.84;81.47;100448.94;5007387;28;20738;-79
2023/07/11 07:31:05;;;;;;;6.45;2.58;;;;;;;28.11;92.42;100451.47;4987248;28;20470;-78
2023/07/11 07:33:31;;;;;;;3.08;2.38;;;;;;;28.14;88.32;100426.09;4997664;28;20060;-82
2023/07/11 07:35:58;;;;;;;3.10;1.85;;;;;;;28.70;87.05;100531.75;4988775;28;20426;-79
2023/07/11 07:38:27;;;;;;;5.95;3.15;;;;;;;28.74;91.15;100522.47;5008052;28;20058;-78
2023/07/11 07:40:54;;;;;;;3.35;2.17;;;;;;;28.84;92.96;100517.22;5001616;28;20057;-78
2023/07/11 07:43:20;;;;;;;4.10;2.28;;;;;;;27.25;76.77;100437.81;4998456;28;20053;-79
2023/07/11 07:45:53;;;;;;;5.95;2.72;;;;;;;27.89;82.83;100430.59;5004638;28;20065;-81
2023/07/11 07:48:19;;;;;;;8.23;2.20;;;;;;;28.43;72.00;100475.25;5002371;28;20046;-77
2023/07/11 07:50:45;;;;;;;2.90;1.90;;;;;;;28.77;74.61;100492.50;5004857;28;20129;-77
2023/07/11 07:53:12;;;;;;;6.78;2.95;;;;;;;28.92;81.46;100482.41;5008340;28;20045;-79
2023/07/11 07:55:38;;;;;;;3.92;2.28;;;;;;;28.96;71.13;100515.44;5006358;28;20701;-78
2023/07/11 07:58:04;;;;;;;2.65;1.52;;;;;;;28.66;72.01;100424.06;5004580;28;20168;-76
2023/07/11 08:00:30;;;;;;;2.70;1.70;;;;;;;29.13;74.71;100452.06;5007377;28;20072;-78
2023/07/11 08:02:56;;;;;;;3.58;2.30;;;;;;;28.95;72.49;100497.53;5006297;28;20046;-77
2023/07/11 08:05:21;;;;;;;2.83;1.63;;;;;;;28.02;72.11;100481.81;5007494;28;20069;-77
2023/07/11 08:07:47;;;;;;;5.80;1.75;;;;;;;28.99;78.03;100496.31;5004496;28;20833;-77
2023/07/11 08:10:15;;;;;;;2.72;1.95;;;;;;;28.93;73.24;100513.84;5005767;28;20037;-79
2023/07/11 08:12:41;;;;;;;2.15;1.42;;;;;;;28.68;72.15;100439.22;5005906;28;20037;-78
2023/07/11 08:15:07;;;;;;;6.53;3.55;;;;;;;29.21;74.49;100490.16;5002411;28;20387;-77
2023/07/11 08:17:33;;;;;;;3.45;1.98;;;;;;;29.09;71.08;100505.47;5004070;28;20057;-79
2023/07/11 08:19:58;;;;;;;12.25;2.75;;;;;;;29.12;78.50;100426.00;4999321;28;20047;-78
2023/07/11 08:22:23;;;;;;;3.83;2.50;;;;;;;29.50;78.81;100498.72;5001552;28;20069;-78
2023/07/11 08:24:49;;;;;;;7.45;2.90;;;;;;;29.17;68.98;100486.84;4997685;28;20812;-77
2023/07/11 08:27:14;;;;;;;2.78;2.08;;;;;;;29.48;68.81;100424.97;5004670;28;20494;-77
2023/07/11 08:29:44;;;;;;;4.47;2.65;;;;;;;29.94;66.87;100472.69;5002169;28;20591;-78
2023/07/11 08:32:11;;;;;;;4.25;3.28;;;;;;;30.36;72.96;100474.78;4999880;28;20061;-78
2023/07/11 08:34:36;;;;;;;4.32;2.47;;;;;;;29.86;65.90;100475.19;4998419;28;20042;-78
2023/07/11 08:37:02;;;;;;;4.47;2.63;;;;;;;30.53;69.06;100451.72;5003795;28;20026;-78
2023/07/11 08:39:28;;;;;;;3.72;2.08;;;;;;;29.92;65.68;100362.88;4999523;28;20046;-79
2023/07/11 08:41:55;;;;;;;3.15;2.40;;;;;;;30.03;60.39;100482.78;4996911;28;20061;-80
2023/07/11 08:44:39;;;;;;;5.97;3.13;;;;;;;30.62;62.31;100418.44;5005570;28;20832;-78
2023/07/11 08:47:09;;;;;;;4.28;2.58;;;;;;;30.87;57.09;100468.75;5003950;28;20061;-78
2023/07/11 08:50:05;;;;;;;4.55;1.63;;;;;;;30.62;57.99;100419.31;5000444;28;20058;-80
2023/07/11 08:52:32;;;;;;;5.85;2.83;;;;;;;31.53;55.84;100469.38;5001201;28;20521;-78
2023/07/11 08:55:12;;;;;;;3.63;2.60;;;;;;;31.59;55.10;100475.31;5001662;28;20030;-78
2023/07/11 08:57:43;;;;;;;3.42;1.70;;;;;;;31.46;53.95;100470.94;4977519;28;20058;-77
2023/07/11 09:00:19;;;;;;;3.80;1.92;;;;;;;31.40;56.12;100390.13;5002135;28;20058;-78
2023/07/11 09:03:06;;;;;;;6.32;3.47;;;;;;;31.49;53.54;100459.81;4999900;28;20502;-78
2023/07/11 09:05:48;;;;;;;8.05;1.67;;;;;;;31.57;56.69;100377.75;4997811;28;20124;-77
2023/07/11 09:08:16;;;;;;;4.10;2.22;;;;;;;32.08;53.67;100419.41;4985142;28;20124;-79
2023/07/11 09:10:57;;;;;;;3.72;2.45;;;;;;;32.61;55.09;100473.41;5005336;28;20054;-78
2023/07/11 09:13:54;;;;;;;4.18;2.63;;;;;;;32.73;54.72;100474.13;4998511;28;20525;-78
2023/07/11 09:16:40;;;;;;;3.97;2.33;;;;;;;32.77;52.11;100473.72;5000403;28;20429;-78
2023/07/11 09:19:43;;;;;;;4.72;2.33;;;;;;;32.81;52.21;100477.00;4992894;28;20041;-79
2023/07/11 09:22:36;;;;;;;4.55;2.35;;;;;;;33.11;52.32;100484.19;4998625;28;20062;-80
2023/07/11 09:25:23;;;;;;;3.45;2.22;;;;;;;32.90;49.24;100481.59;5001020;28;20065;-78
2023/07/11 09:27:53;;;;;;;9.70;3.40;;;;;;;31.80;50.16;100483.41;5001096;28;20058;-78
2023/07/11 09:30:28;;;;;;;14.70;3.42;;;;;;;32.64;51.62;100484.00;4999675;28;20054;-79
2023/07/11 09:33:08;;;;;;;3.75;2.55;;;;;;;31.88;52.42;100475.44;4997660;28;20046;-79
2023/07/11 09:35:35;;;;;;;3.55;2.63;;;;;;;32.05;51.81;100474.81;5000730;28;20045;-79
2023/07/11 09:38:17;;;;;;;5.60;3.45;;;;;;;32.66;51.81;100449.38;5004998;28;20726;-79
2023/07/11 09:40:51;;;;;;;3.95;2.67;;;;;;;31.87;50.18;100386.88;5000424;28;20077;-80
2023/07/11 09:43:16;;;;;;;3.10;2.35;;;;;;;32.08;49.12;100379.53;4995905;28;20125;-77
2023/07/11 09:45:44;;;;;;;3.30;2.03;;;;;;;31.46;49.96;100337.16;5002216;28;20133;-79
2023/07/11 09:48:40;;;;;;;4.03;2.88;;;;;;;31.83;54.67;100453.28;4998428;28;20065;-78
2023/07/11 09:51:28;;;;;;;3.55;2.60;;;;;;;30.45;55.87;100446.94;4988409;28;20062;-78
2023/07/11 09:53:54;;;;;;;6.47;2.45;;;;;;;30.62;62.69;100372.41;4986595;28;20099;-79
2023/07/11 09:56:21;;;;;;;3.25;2.25;;;;;;;30.65;58.56;100410.94;5003106;28;20038;-77
2023/07/11 09:58:57;;;;;;;5.97;3.67;;;;;;;30.76;64.56;100447.09;4998034;28;20042;-77
2023/07/11 10:01:32;;;;;;;3.38;2.03;;;;;;;30.22;60.53;100446.97;4999851;28;20589;-77
2023/07/11 10:04:00;;;;;;;2.15;1.48;;;;;;;30.21;60.24;100409.22;5003466;28;20057;-79
2023/07/11 10:06:41;;;;;;;5.88;3.47;;;;;;;30.58;66.98;100433.22;5000961;28;20058;-79
2023/07/11 10:09:20;;;;;;;9.02;5.03;;;;;;;30.54;64.66;100445.34;5000291;28;20502;-78
2023/07/11 10:11:53;;;;;;;3.35;1.85;;;;;;;31.25;61.46;100380.56;4980339;28;20137;-76
2023/07/11 10:14:23;;;;;;;5.05;2.20;;;;;;;30.76;59.64;100363.94;4997717;28;20080;-80
2023/07/11 10:16:48;;;;;;;3.88;2.08;;;;;;;30.48;60.62;100350.06;5000557;28;20121;-79
2023/07/11 10:19:17;;;;;;;6.32;2.67;;;;;;;30.82;61.71;100395.09;4983507;28;20179;-80
2023/07/11 10:21:50;;;;;;;5.25;2.28;;;;;;;30.36;61.75;100344.81;5003536;28;20074;-79
2023/07/11 10:24:21;;;;;;;13.88;2.97;;;;;;;30.92;60.68;100425.88;4998361;28;20469;-77
2023/07/11 10:26:53;;;;;;;2.93;2.03;;;;;;;30.93;67.40;100416.75;4995540;28;20510;-78
2023/07/11 10:29:23;;;;;;;4.03;3.03;;;;;;;31.31;57.44;100350.22;5000332;28;20049;-78
2023/07/11 10:32:06;;;;;;;3.13;1.90;;;;;;;30.88;62.18;100359.34;4996561;28;20096;-77
2023/07/11 10:34:49;;;;;;;;;;;;;;;31.49;57.46;100412.81;4999119;28;20046;-77
2023/07/11 10:37:33;;;;;;;3.45;2.30;;;;;;;32.08;56.56;100335.22;4996674;28;19917;-77
2023/07/11 10:40:28;;;;;;;3.70;2.38;;;;;;;32.40;54.41;100408.28;5000955;28;20375;-78
2023/07/11 10:43:14;;;;;;;7.70;3.58;;;;;;;32.22;56.05;100418.13;5000285;28;20605;-77
2023/07/11 10:45:44;;;;;;;4.35;2.72;;;;;;;31.60;57.09;100366.63;4997726;28;20109;-77
2023/07/11 10:48:31;;;;;;;5.57;3.33;;;;;;;31.63;55.70;100396.22;5001210;28;20091;-78
2023/07/11 10:50:59;;;;;;;5.00;2.92;;;;;;;31.57;54.84;100406.75;4998828;28;20671;-78
2023/07/11 10:53:47;;;;;;;5.78;3.78;;;;;;;31.36;58.36;100352.53;4996029;28;20093;-80
2023/07/11 10:56:24;;;;;;;3.92;2.58;;;;;;;31.53;56.91;100381.72;4996543;28;20050;-77
2023/07/11 10:58:50;;;;;;;3.85;2.65;;;;;;;31.44;57.13;100369.00;5000551;28;20042;-77
2023/07/11 11:01:48;;;;;;;4.35;2.97;;;;;;;31.21;57.84;100373.69;5001809;28;20107;-78
2023/07/11 11:04:32;;;;;;;6.32;3.38;;;;;;;31.57;59.14;100375.06;4989092;28;20038;-79
2023/07/11 11:07:07;;;;;;;6.43;3.47;;;;;;;31.51;56.94;100307.78;4999913;28;20124;-79
2023/07/11 11:09:42;;;;;;;5.15;3.67;;;;;;;30.97;58.28;100252.88;5002788;28;20145;-78
2023/07/11 11:12:34;;;;;;;5.18;2.95;;;;;;;31.26;57.92;100323.50;4997387;28;20540;-77
2023/07/11 11:15:47;;;;;;;2.42;1.80;;;;;;;31.28;64.77;100362.19;4994632;28;20049;-77
2023/07/11 11:18:54;;;;;;;4.90;3.67;;;;;;;31.24;63.76;100358.03;4949990;28;20058;-78
2023/07/11 11:21:34;;;;;;;4.78;3.45;;;;;;;30.96;64.15;100290.97;4992541;28;20046;-79
2023/07/11 11:24:00;;;;;;;2.55;2.15;;;;;;;31.41;60.88;100361.97;4999339;28;20054;-76
2023/07/11 11:26:25;;;;;;;4.55;3.10;;;;;;;31.26;57.42;100347.91;4997439;28;20417;-79